Commerce, Oklahoma
Current Conditions -  °F | °C
As of 7:35 PM on Friday 19 Dec 2014 (Local Time) from KGMJ Reporting Station
Haze Haze  
Wind Chill: 41°   Ceiling: 300
Heat Index: 41°   Visibility: 3mi
Dew Point: 41°   Wind: 0mph
Humidity: 100%   Direction: NA
Pressure: 30.22"   Gusts: NA
Location:  36.93°N, 94.87°W
Report Text: KGMJ 200135Z AUTO 00000KT 3SM BR OVC003 05/05 A3022 RMK AO2
Loading
Personal Weather Stations






























Interactive Weather Map New forecast layout! Learn more

10-Day Weather Forecast

Advertisements
Track Severe Weather on mobile